Hyundai Bangkok — 3EIN6 — position and weather

sailwx.info

Track history (hours):
 
Tides and Currents Weather Stations Pressure Air Temp Water Temp Dewpoint Dewpoint Depression Visibility Wind Speed Wind Dir Waves Ship Positions

Hyundai Bangkok

Last reported at 2017-Sep-14 04:41 UTC. Time now 2017-Sep-19 15:31 UTC.
Position N 22°19' E 114°07'.

Length 303 m; draft 10 m.

Type: Cargo ship. MMSI: 372340000.

Date/timePositionNaut miles runAvg speedWind from/ knotsBaromVisibWave heightAir tempDewpointWater temp
2017-Sep-14 04:41N 22°19' E 114°07'1 3.1
2017-Sep-14 04:29N 22°20' E 114°07'0 0.1
2017-Sep-14 01:12N 22°20' E 114°08'0 0.0
2017-Sep-13 16:03N 22°20' E 114°08'0 0.0
2017-Sep-13 16:00N 22°20' E 114°08'31213.8
2017-Sep-12 17:20N 22°31' E 119°45'515.8
2017-Sep-12 17:00N 22°30' E 119°51'815.1
2017-Sep-12 16:30N 22°31' E 119°59'815.4
2017-Sep-12 16:00N 22°32' E 120°07'815.5
2017-Sep-12 15:30N 22°33' E 120°15'4 7.4
2017-Sep-12 15:00N 22°33' E 120°19'1 2.2
2017-Sep-12 14:30N 22°34' E 120°18'0 0.0
2017-Sep-12 14:00N 22°34' E 120°18'0 0.0
2017-Sep-12 10:01N 22°34' E 120°18'0 0.0
2017-Sep-12 09:27N 22°34' E 120°18'0 0.0
2017-Sep-12 09:00N 22°34' E 120°18'0 0.0
2017-Sep-12 08:27N 22°34' E 120°18'0 0.0
2017-Sep-12 07:54N 22°34' E 120°18'0 0.0
2017-Sep-12 07:24N 22°34' E 120°18'0 0.0
2017-Sep-12 07:00N 22°34' E 120°18'0 0.0
2017-Sep-12 06:30N 22°34' E 120°18'0 0.1
2017-Sep-12 06:01N 22°34' E 120°18'0 0.1
2017-Sep-12 05:06N 22°34' E 120°18'0 0.0
2017-Sep-12 05:00N 22°34' E 120°18'0 0.0
2017-Sep-12 03:45N 22°34' E 120°18'0 0.0
2017-Sep-12 03:30N 22°34' E 120°18'0 0.0
2017-Sep-12 03:00N 22°34' E 120°18'0 0.0
2017-Sep-12 02:27N 22°34' E 120°18'0 0.0
2017-Sep-12 02:00N 22°34' E 120°18'0 0.0
2017-Sep-11 23:39N 22°34' E 120°18'0 0.0
2017-Sep-11 22:45N 22°34' E 120°18'0 0.0
2017-Sep-11 22:31N 22°34' E 120°18'0 0.2
2017-Sep-11 21:58N 22°34' E 120°19'1 2.1
2017-Sep-11 21:30N 22°33' E 120°19'3 5.1
2017-Sep-11 21:00N 22°33' E 120°16'0 0.8
2017-Sep-11 20:30N 22°32' E 120°16'5 9.5
2017-Sep-11 20:00N 22°34' E 120°11'918.4
2017-Sep-11 19:30N 22°41' E 120°05'1020.1
2017-Sep-11 19:00N 22°50' E 120°00'3018.5
2017-Sep-11 17:22N 23°20' E 119°56'717.7
2017-Sep-11 17:00N 23°27' E 119°56'1416.8
2017-Sep-11 16:08N 23°41' E 119°57'416.4
2017-Sep-11 15:55N 23°45' E 119°58'716.3
2017-Sep-11 15:29N 23°51' E 119°60'816.8
2017-Sep-11 15:00N 23°59' E 120°02'1017.6
2017-Sep-11 14:25N 24°09' E 120°05'818.1
2017-Sep-11 14:00N 24°17' E 120°07'1118.2
2017-Sep-11 13:25N 24°25' E 120°14'818.5
2017-Sep-11 13:00N 24°31' E 120°19'1018.7
2017-Sep-11 12:29N 24°38' E 120°26'918.5
2017-Sep-11 12:00N 24°45' E 120°32'918.0
2017-Sep-11 11:30N 24°53' E 120°38'918.0
2017-Sep-11 11:00N 25°00' E 120°44'917.7
2017-Sep-11 10:30N 25°07' E 120°49'917.2
2017-Sep-11 09:58N 25°15' E 120°55'817.0
2017-Sep-11 09:30N 25°21' E 121°00'917.1
2017-Sep-11 08:58N 25°29' E 121°06'916.7
2017-Sep-11 08:25N 25°36' E 121°12'818.4
2017-Sep-11 07:58N 25°43' E 121°18'  
Track history (hours):
 
Tides and Currents Weather Stations Pressure Air Temp Water Temp Dewpoint Dewpoint Depression Visibility Wind Speed Wind Dir Waves Ship Positions

Hyundai Bangkok

Last reported at 2017-Sep-14 04:41 UTC. Time now 2017-Sep-19 15:31 UTC.
Position N 22°19' E 114°07'.

Length 303 m; draft 10 m.

Type: Cargo ship. MMSI: 372340000.

Date/timePositionNaut miles runAvg speedWind from/ knotsBaromVisibWave heightAir tempDewpointWater temp
2017-Sep-14 04:41N 22°19' E 114°07'1 3.1
2017-Sep-14 04:29N 22°20' E 114°07'0 0.1
2017-Sep-14 01:12N 22°20' E 114°08'0 0.0
2017-Sep-13 16:03N 22°20' E 114°08'0 0.0
2017-Sep-13 16:00N 22°20' E 114°08'31213.8
2017-Sep-12 17:20N 22°31' E 119°45'515.8
2017-Sep-12 17:00N 22°30' E 119°51'815.1
2017-Sep-12 16:30N 22°31' E 119°59'815.4
2017-Sep-12 16:00N 22°32' E 120°07'815.5
2017-Sep-12 15:30N 22°33' E 120°15'4 7.4
2017-Sep-12 15:00N 22°33' E 120°19'1 2.2
2017-Sep-12 14:30N 22°34' E 120°18'0 0.0
2017-Sep-12 14:00N 22°34' E 120°18'0 0.0
2017-Sep-12 10:01N 22°34' E 120°18'0 0.0
2017-Sep-12 09:27N 22°34' E 120°18'0 0.0
2017-Sep-12 09:00N 22°34' E 120°18'0 0.0
2017-Sep-12 08:27N 22°34' E 120°18'0 0.0
2017-Sep-12 07:54N 22°34' E 120°18'0 0.0
2017-Sep-12 07:24N 22°34' E 120°18'0 0.0
2017-Sep-12 07:00N 22°34' E 120°18'0 0.0
2017-Sep-12 06:30N 22°34' E 120°18'0 0.1
2017-Sep-12 06:01N 22°34' E 120°18'0 0.1
2017-Sep-12 05:06N 22°34' E 120°18'0 0.0
2017-Sep-12 05:00N 22°34' E 120°18'0 0.0
2017-Sep-12 03:45N 22°34' E 120°18'0 0.0
2017-Sep-12 03:30N 22°34' E 120°18'0 0.0
2017-Sep-12 03:00N 22°34' E 120°18'0 0.0
2017-Sep-12 02:27N 22°34' E 120°18'0 0.0
2017-Sep-12 02:00N 22°34' E 120°18'0 0.0
2017-Sep-11 23:39N 22°34' E 120°18'0 0.0
2017-Sep-11 22:45N 22°34' E 120°18'0 0.0
2017-Sep-11 22:31N 22°34' E 120°18'0 0.2
2017-Sep-11 21:58N 22°34' E 120°19'1 2.1
2017-Sep-11 21:30N 22°33' E 120°19'3 5.1
2017-Sep-11 21:00N 22°33' E 120°16'0 0.8
2017-Sep-11 20:30N 22°32' E 120°16'5 9.5
2017-Sep-11 20:00N 22°34' E 120°11'918.4
2017-Sep-11 19:30N 22°41' E 120°05'1020.1
2017-Sep-11 19:00N 22°50' E 120°00'3018.5
2017-Sep-11 17:22N 23°20' E 119°56'717.7
2017-Sep-11 17:00N 23°27' E 119°56'1416.8
2017-Sep-11 16:08N 23°41' E 119°57'416.4
2017-Sep-11 15:55N 23°45' E 119°58'716.3
2017-Sep-11 15:29N 23°51' E 119°60'816.8
2017-Sep-11 15:00N 23°59' E 120°02'1017.6
2017-Sep-11 14:25N 24°09' E 120°05'818.1
2017-Sep-11 14:00N 24°17' E 120°07'1118.2
2017-Sep-11 13:25N 24°25' E 120°14'818.5
2017-Sep-11 13:00N 24°31' E 120°19'1018.7
2017-Sep-11 12:29N 24°38' E 120°26'918.5
2017-Sep-11 12:00N 24°45' E 120°32'918.0
2017-Sep-11 11:30N 24°53' E 120°38'918.0
2017-Sep-11 11:00N 25°00' E 120°44'917.7
2017-Sep-11 10:30N 25°07' E 120°49'917.2
2017-Sep-11 09:58N 25°15' E 120°55'817.0
2017-Sep-11 09:30N 25°21' E 121°00'917.1
2017-Sep-11 08:58N 25°29' E 121°06'916.7
2017-Sep-11 08:25N 25°36' E 121°12'818.4
2017-Sep-11 07:58N 25°43' E 121°18'  

Dump ship's entire track history